KPBG/PBG METAR and TAF weather

Enter ICAO airport designator
Station Type Date Time Source
KPBG METAR 2021/09/25 11:53 UTC NOAA

KPBG 251153Z AUTO 00000KT 10SM CLR 12/10 A3005 RMK AO2 SLP177 70004 T01170100 10133 20094 50004


Station Type Date Time Source
KPBG Decoded METAR 2021/09/25 11:53 UTC NOAA

PLATTSBURGH INTERNATIONAL AIRPORT, NY, United States (KPBG) 44-39N 073-28W
Sep 25, 2021 - 07:53 AM EDT / 2021.09.25 1153 UTC
Wind: Calm:0
Visibility: 10 mile(s):0
Sky conditions: clear
Temperature: 53.1 F (11.7 C)
Dew Point: 50.0 F (10.0 C)
Relative Humidity: 89%
Pressure (altimeter): 30.05 in. Hg (1017 hPa)
Pressure tendency: 0.01 inches (0.4 hPa) higher than three hours ago
ob: KPBG 251153Z AUTO 00000KT 10SM CLR 12/10 A3005 RMK AO2 SLP177 70004 T01170100 10133 20094 50004
cycle: 12

Station Type Date Time Source
KPBG TAF 2021/09/25 12:24 UTC NOAA

TAF KPBG 251120Z 2512/2612 VRB03KT P6SM SKC
FM251600 14006KT P6SM SCT250

Example: see airport list